Piedmont, Wyoming
Current Conditions -  °F | °C
As of 8:35 PM on Sunday 21 Dec 2014 (Local Time) from KFBR Reporting Station
Overcast Overcast  
Wind Chill: 22°   Ceiling: 4800
Heat Index: 35°   Visibility: 10mi
Dew Point: 34°   Wind: 31mph
Humidity: 95%   Direction: 280°W
Pressure: 29.87"   Gusts: 40mph
Location:  41.2998°N, 110.328°W
Report Text: KFBR 220335Z AUTO 28027G35KT 10SM SCT015 BKN048 OVC110 02/01 A2987 RMK AO2 T00180011
Loading
Personal Weather Stations






























Interactive Weather Map New forecast layout! Learn more

10-Day Weather Forecast

Advertisements
Track Severe Weather on mobile